CheckWX is a tool to help pilots better visualize weather data.  It is not intended as a substitute for an official pre-flight weather briefing.

07:35:57 UTC

GMFF METAR
Saïss Airport
Fes, Morocco
Current

36 mins ago

GMFF 220700Z VRB02KT 9999 SCT026 SCT030 FEW033CB 07/05 Q1015 NOSIG
Observed
Jan-22 @ 07:00 UTC
Wind
  • Variable at 2 KTS
Visibility
10,000+ meters
Flight Rules
VFR
Cloud Levels
  • Scattered at 2,600' AGL
  • Scattered at 3,000' AGL
  • Few at 3,300' AGL
Temperature
C / 45°F
Dewpoint
C / 41°F
Humidity
87%
Altimeter
29.97" Hg
Pressure
1014.92 hPa
Previous

1 hour ago

GMFF 220630Z VRB02KT 9999 SCT026 SCT030 FEW033CB 08/05 Q1014 NOSIG
Observed
Jan-22 @ 06:30 UTC
Wind
  • Variable at 2 KTS
Visibility
10,000+ meters
Flight Rules
VFR
Cloud Levels
  • Scattered at 2,600' AGL
  • Scattered at 3,000' AGL
  • Few at 3,300' AGL
Temperature
C / 46°F
Dewpoint
C / 41°F
Humidity
82%
Altimeter
29.94" Hg
Pressure
1013.92 hPa
Previous

2 hours ago

GMFF 220600Z 26005KT 190V340 9999 FEW026 SCT030 08/04 Q1014 NOSIG
Observed
Jan-22 @ 06:00 UTC
Wind
  • 260° at 5 KTS
Visibility
10,000+ meters
Flight Rules
VFR
Cloud Levels
  • Few at 2,600' AGL
  • Scattered at 3,000' AGL
Temperature
C / 46°F
Dewpoint
C / 39°F
Humidity
76%
Altimeter
29.94" Hg
Pressure
1013.92 hPa